createdAt,value
2019-06-26T00:01:07.718Z,8.63
2019-06-26T00:03:40.236Z,8.43
2019-06-26T00:06:12.045Z,8.73
2019-06-26T00:08:44.312Z,8.57
2019-06-26T00:11:16.883Z,8.93
2019-06-26T00:13:49.228Z,8.50
2019-06-26T00:16:21.336Z,9.60
2019-06-26T00:18:53.180Z,8.50
2019-06-26T00:21:24.960Z,9.03
2019-06-26T00:23:57.264Z,9.43
2019-06-26T00:26:29.055Z,9.50
2019-06-26T00:29:00.924Z,9.10
2019-06-26T00:31:33.151Z,8.77
2019-06-26T00:34:05.105Z,8.93
2019-06-26T00:36:37.946Z,9.37
2019-06-26T00:39:09.813Z,9.30
2019-06-26T00:41:42.223Z,8.93
2019-06-26T00:44:14.507Z,8.97
2019-06-26T00:46:46.265Z,9.10
2019-06-26T00:49:18.070Z,9.17
2019-06-26T00:51:49.875Z,9.47
2019-06-26T00:54:21.731Z,8.90
2019-06-26T00:56:53.567Z,9.20
2019-06-26T00:59:25.409Z,9.43
2019-06-26T01:01:57.343Z,9.80
2019-06-26T01:04:33.858Z,8.90
2019-06-26T01:07:06.146Z,8.97
2019-06-26T01:09:38.010Z,9.90
2019-06-26T01:12:09.881Z,9.40
2019-06-26T01:14:41.752Z,9.60
2019-06-26T01:17:14.068Z,9.20
2019-06-26T01:19:46.843Z,9.97
2019-06-26T01:22:18.695Z,9.63
2019-06-26T01:24:50.495Z,9.33
2019-06-26T01:27:22.339Z,9.20
2019-06-26T01:29:54.147Z,9.03
2019-06-26T01:32:26.062Z,9.27
2019-06-26T01:34:57.913Z,9.10
2019-06-26T01:37:29.724Z,9.40
2019-06-26T01:40:01.617Z,9.40
2019-06-26T01:42:33.398Z,9.73
2019-06-26T01:45:07.632Z,10.00
2019-06-26T01:47:40.471Z,9.53
2019-06-26T01:50:12.441Z,9.90
2019-06-26T01:52:44.725Z,9.97
2019-06-26T01:55:16.950Z,9.90
2019-06-26T01:57:49.350Z,10.27
2019-06-26T02:00:21.435Z,9.73
2019-06-26T02:02:53.305Z,10.10
2019-06-26T02:05:26.145Z,10.23
2019-06-26T02:07:58.897Z,11.17
2019-06-26T02:10:31.285Z,10.47
2019-06-26T02:13:03.173Z,10.20
2019-06-26T02:15:35.046Z,10.70
2019-06-26T02:18:26.748Z,10.93
2019-06-26T02:20:58.567Z,10.23
2019-06-26T02:23:30.349Z,10.30
2019-06-26T02:26:02.244Z,10.57
2019-06-26T02:28:34.120Z,10.97
2019-06-26T02:31:06.034Z,11.10
2019-06-26T02:33:37.889Z,11.10
2019-06-26T02:36:09.765Z,10.60
2019-06-26T02:38:42.461Z,10.43
2019-06-26T02:41:16.159Z,10.90
2019-06-26T02:43:48.131Z,10.90
2019-06-26T02:46:19.920Z,11.77
2019-06-26T02:48:52.282Z,11.13
2019-06-26T02:51:24.196Z,10.60
2019-06-26T02:53:56.109Z,10.97
2019-06-26T02:56:27.916Z,10.47
2019-06-26T02:58:59.838Z,10.77
2019-06-26T03:01:31.711Z,10.53
2019-06-26T03:04:04.120Z,10.43
2019-06-26T03:06:36.436Z,10.63
2019-06-26T03:09:08.752Z,11.37
2019-06-26T03:11:40.692Z,11.00
2019-06-26T03:14:12.983Z,11.20
2019-06-26T03:16:45.329Z,12.30
2019-06-26T03:19:17.087Z,10.27
2019-06-26T03:21:48.935Z,11.07
2019-06-26T03:24:20.865Z,11.57
2019-06-26T03:26:52.745Z,10.83
2019-06-26T03:29:24.578Z,10.77
2019-06-26T03:31:56.319Z,10.50
2019-06-26T03:34:28.271Z,10.27
2019-06-26T03:37:00.686Z,10.53
2019-06-26T03:39:32.575Z,10.70
2019-06-26T03:42:04.421Z,10.27
2019-06-26T03:44:36.374Z,10.80
2019-06-26T03:47:08.179Z,11.30
2019-06-26T03:49:39.951Z,10.93
2019-06-26T03:52:11.780Z,11.03
2019-06-26T03:54:43.476Z,10.53
2019-06-26T03:57:16.178Z,11.53
2019-06-26T03:59:48.021Z,10.53
2019-06-26T04:02:19.958Z,10.83
2019-06-26T04:04:51.837Z,12.33
2019-06-26T04:07:23.630Z,11.30
2019-06-26T04:09:55.423Z,10.97
2019-06-26T04:12:27.267Z,11.57
2019-06-26T04:14:59.135Z,11.10
2019-06-26T04:17:31.647Z,10.50
2019-06-26T04:20:03.539Z,10.60
2019-06-26T04:22:35.415Z,9.53
2019-06-26T04:25:07.984Z,10.13
2019-06-26T04:27:40.989Z,9.90
2019-06-26T04:30:13.993Z,9.13
2019-06-26T04:32:45.861Z,10.03
2019-06-26T04:35:18.763Z,10.20
2019-06-26T04:37:50.613Z,9.87
2019-06-26T04:40:22.719Z,10.43
2019-06-26T04:42:54.613Z,10.97
2019-06-26T04:45:26.450Z,9.75
2019-06-26T04:47:58.247Z,10.10
2019-06-26T04:50:30.047Z,10.25
2019-06-26T04:53:02.328Z,10.00
2019-06-26T04:55:34.516Z,9.23
2019-06-26T04:58:07.499Z,10.03
2019-06-26T05:00:39.679Z,8.90
2019-06-26T05:03:11.917Z,9.30
2019-06-26T05:05:44.779Z,9.93
2019-06-26T05:08:17.001Z,9.60
2019-06-26T05:10:48.767Z,8.93
2019-06-26T05:13:21.844Z,9.30
2019-06-26T05:15:54.282Z,10.03
2019-06-26T05:18:26.059Z,9.20
2019-06-26T05:20:57.825Z,9.90
2019-06-26T05:23:29.643Z,9.28
2019-06-26T05:26:01.404Z,9.73
2019-06-26T05:28:33.249Z,9.25
2019-06-26T05:31:05.195Z,9.18
2019-06-26T05:33:38.650Z,9.65
2019-06-26T05:36:10.430Z,9.65
2019-06-26T05:38:44.524Z,9.88
2019-06-26T05:41:16.651Z,9.35
2019-06-26T05:43:48.919Z,9.75
2019-06-26T05:46:30.493Z,8.95
2019-06-26T05:48:54.124Z,10.30
2019-06-26T05:51:26.363Z,9.78
2019-06-26T05:53:58.684Z,9.35
2019-06-26T05:56:30.912Z,8.90
2019-06-26T05:59:02.820Z,8.75
2019-06-26T06:01:35.142Z,8.28
2019-06-26T06:04:07.447Z,9.25
2019-06-26T06:06:42.176Z,8.88
2019-06-26T06:09:13.703Z,8.38
2019-06-26T06:11:46.020Z,8.03
2019-06-26T06:14:17.803Z,9.28
2019-06-26T06:16:50.127Z,8.78
2019-06-26T06:19:22.973Z,8.38
2019-06-26T06:21:55.157Z,19.10
2019-06-26T06:24:27.455Z,8.70
2019-06-26T06:26:59.639Z,8.35
2019-06-26T06:29:31.468Z,8.68
2019-06-26T06:32:03.677Z,9.30
2019-06-26T06:34:36.111Z,9.05
2019-06-26T06:37:07.895Z,8.43
2019-06-26T06:39:40.219Z,9.23
2019-06-26T06:42:12.102Z,8.63
2019-06-26T06:44:43.896Z,8.60
2019-06-26T06:47:15.772Z,8.38
2019-06-26T06:49:48.043Z,8.28
2019-06-26T06:52:19.805Z,8.23
2019-06-26T06:54:52.003Z,8.83
2019-06-26T06:57:23.764Z,8.10
2019-06-26T06:59:55.472Z,8.40
2019-06-26T07:02:27.155Z,8.33
2019-06-26T07:04:59.038Z,8.93
2019-06-26T07:07:31.124Z,9.05
2019-06-26T07:10:03.211Z,8.73
2019-06-26T07:12:37.549Z,8.40
2019-06-26T07:15:09.889Z,9.75
2019-06-26T07:17:41.726Z,8.58
2019-06-26T07:20:13.589Z,8.43
2019-06-26T07:22:45.442Z,8.30
2019-06-26T07:25:17.487Z,8.38
2019-06-26T07:27:49.361Z,8.75
2019-06-26T07:30:22.008Z,7.75
2019-06-26T07:32:54.022Z,7.60
2019-06-26T07:35:26.338Z,7.67
2019-06-26T07:38:00.224Z,7.78
2019-06-26T07:40:32.317Z,6.97
2019-06-26T07:43:04.104Z,7.42
2019-06-26T07:45:35.949Z,8.20
2019-06-26T07:48:07.747Z,7.12
2019-06-26T07:50:40.110Z,6.45
2019-06-26T07:53:11.950Z,7.03
2019-06-26T07:55:43.813Z,6.78
2019-06-26T07:58:15.696Z,6.33
2019-06-26T08:00:48.521Z,6.42
2019-06-26T08:03:20.247Z,6.47
2019-06-26T08:05:52.048Z,6.95
2019-06-26T08:08:23.843Z,6.62
2019-06-26T08:10:56.691Z,6.83
2019-06-26T08:13:28.479Z,6.80
2019-06-26T08:16:01.431Z,7.00
2019-06-26T08:18:33.769Z,6.62
2019-06-26T08:21:12.466Z,6.85
2019-06-26T08:23:39.458Z,7.17
2019-06-26T08:26:11.831Z,8.83
2019-06-26T08:28:43.556Z,7.10
2019-06-26T08:31:15.224Z,7.10
2019-06-26T08:33:47.486Z,6.90
2019-06-26T08:36:20.306Z,7.08
2019-06-26T08:38:52.044Z,10.10
2019-06-26T08:41:24.261Z,8.23
2019-06-26T08:43:56.520Z,7.62
2019-06-26T08:46:29.231Z,7.28
2019-06-26T08:49:01.649Z,6.85
2019-06-26T08:51:33.937Z,8.10
2019-06-26T08:54:07.310Z,7.30
2019-06-26T08:56:41.769Z,7.17
2019-06-26T08:59:14.392Z,7.22
2019-06-26T09:01:46.115Z,7.28
2019-06-26T09:04:18.318Z,6.72
2019-06-26T09:06:50.047Z,6.78
2019-06-26T09:09:21.793Z,6.83
2019-06-26T09:11:54.029Z,6.83
2019-06-26T09:14:26.232Z,6.42
2019-06-26T09:16:58.457Z,7.05
2019-06-26T09:19:30.057Z,6.40
2019-06-26T09:22:02.384Z,7.50
2019-06-26T09:24:34.587Z,7.08
2019-06-26T09:27:07.336Z,5.85
2019-06-26T09:29:39.602Z,8.30
2019-06-26T09:32:11.824Z,6.92
2019-06-26T09:34:45.159Z,8.13
2019-06-26T09:37:16.932Z,10.40
2019-06-26T09:39:49.103Z,6.97
2019-06-26T09:42:21.317Z,9.80
2019-06-26T09:44:53.644Z,9.20
2019-06-26T09:47:25.360Z,9.98
2019-06-26T09:49:57.969Z,8.65
2019-06-26T09:52:29.772Z,7.22
2019-06-26T09:55:02.616Z,8.53
2019-06-26T09:57:34.790Z,6.60
2019-06-26T10:00:07.543Z,6.03
2019-06-26T10:02:40.895Z,6.83
2019-06-26T10:05:13.706Z,6.17
2019-06-26T10:07:45.971Z,6.70
2019-06-26T10:10:18.425Z,6.08
2019-06-26T10:12:50.223Z,5.35
2019-06-26T10:15:22.840Z,6.00
2019-06-26T10:17:55.171Z,6.62
2019-06-26T10:20:26.897Z,6.20
2019-06-26T10:22:58.684Z,6.42
2019-06-26T10:25:30.444Z,7.05
2019-06-26T10:28:02.710Z,6.87
2019-06-26T10:30:35.444Z,6.60
2019-06-26T10:33:07.641Z,6.72
2019-06-26T10:35:39.776Z,6.95
2019-06-26T10:38:11.525Z,7.75
2019-06-26T10:40:44.556Z,7.08
2019-06-26T10:43:16.244Z,8.33
2019-06-26T10:45:48.716Z,7.37
2019-06-26T10:48:20.494Z,6.58
2019-06-26T10:50:58.426Z,6.83
2019-06-26T10:53:27.287Z,8.38
2019-06-26T10:55:58.982Z,7.37
2019-06-26T10:58:30.686Z,6.97
2019-06-26T11:01:02.952Z,7.40
2019-06-26T11:03:34.701Z,7.90
2019-06-26T11:06:07.207Z,6.75
2019-06-26T11:08:39.415Z,7.45
2019-06-26T11:11:11.679Z,7.60
2019-06-26T11:13:43.347Z,7.30
2019-06-26T11:16:14.980Z,7.20
2019-06-26T11:18:47.189Z,9.73
2019-06-26T11:21:19.373Z,10.78
2019-06-26T11:23:51.058Z,8.45
2019-06-26T11:26:23.035Z,7.17
2019-06-26T11:28:55.101Z,6.55
2019-06-26T11:31:26.761Z,6.95
2019-06-26T11:33:58.555Z,6.87
2019-06-26T11:36:31.270Z,6.42
2019-06-26T11:39:04.152Z,7.08
2019-06-26T11:41:35.918Z,7.05
2019-06-26T11:44:07.817Z,6.87
2019-06-26T11:46:40.383Z,6.40
2019-06-26T11:49:12.472Z,6.60
2019-06-26T11:51:44.281Z,6.85
2019-06-26T11:54:16.436Z,6.00
2019-06-26T11:56:48.617Z,6.90
2019-06-26T11:59:20.347Z,7.20
2019-06-26T12:01:52.107Z,7.28
2019-06-26T12:04:23.898Z,6.87
2019-06-26T12:06:55.588Z,6.37
2019-06-26T12:09:27.356Z,6.70
2019-06-26T12:11:59.189Z,7.12
2019-06-26T12:14:30.916Z,7.42
2019-06-26T12:17:02.741Z,7.22
2019-06-26T12:19:34.959Z,7.78
2019-06-26T12:22:07.226Z,8.28
2019-06-26T12:24:39.691Z,7.35
2019-06-26T12:27:11.822Z,8.40
2019-06-26T12:29:43.908Z,7.87
2019-06-26T12:32:15.522Z,9.20
2019-06-26T12:34:48.364Z,8.38
2019-06-26T12:37:34.012Z,8.05
2019-06-26T12:39:54.188Z,8.10
2019-06-26T12:42:26.763Z,7.20
2019-06-26T12:44:58.520Z,7.35
2019-06-26T12:47:30.305Z,7.95
2019-06-26T12:50:02.028Z,8.40
2019-06-26T12:52:34.220Z,7.83
2019-06-26T12:55:06.232Z,8.03
2019-06-26T12:57:38.506Z,7.30
2019-06-26T13:00:11.383Z,6.87
2019-06-26T13:02:43.256Z,6.65
2019-06-26T13:05:16.351Z,5.80
2019-06-26T13:07:48.581Z,6.53
2019-06-26T13:10:20.743Z,5.80
2019-06-26T13:12:52.952Z,5.30
2019-06-26T13:15:26.455Z,5.08
2019-06-26T13:18:01.377Z,5.92
2019-06-26T13:20:32.437Z,5.30
2019-06-26T13:23:04.048Z,5.78
2019-06-26T13:25:35.698Z,5.55
2019-06-26T13:28:07.990Z,5.85
2019-06-26T13:30:39.835Z,5.50
2019-06-26T13:33:11.628Z,5.85
2019-06-26T13:35:44.253Z,5.53
2019-06-26T13:38:15.915Z,11.03
2019-06-26T13:40:47.730Z,5.90
2019-06-26T13:43:19.845Z,5.75
2019-06-26T13:45:51.607Z,7.12
2019-06-26T13:48:23.211Z,7.15
2019-06-26T13:51:08.890Z,6.20
2019-06-26T13:53:29.218Z,5.55
2019-06-26T13:56:00.975Z,8.53
2019-06-26T13:58:32.737Z,7.47
2019-06-26T14:01:04.384Z,7.17
2019-06-26T14:03:37.040Z,6.30
2019-06-26T14:06:09.187Z,5.47
2019-06-26T14:08:40.888Z,6.47
2019-06-26T14:11:13.518Z,5.83
2019-06-26T14:13:45.292Z,7.45
2019-06-26T14:16:17.059Z,5.60
2019-06-26T14:18:49.227Z,8.03
2019-06-26T14:21:26.102Z,11.60
2019-06-26T14:23:55.187Z,16.05
2019-06-26T14:26:27.387Z,7.10
2019-06-26T14:29:00.109Z,47.30
2019-06-26T14:31:31.895Z,22.17
2019-06-26T14:34:04.452Z,18.20
2019-06-26T14:36:36.677Z,22.45
2019-06-26T14:39:08.769Z,17.60
2019-06-26T14:41:40.451Z,6.05
2019-06-26T14:44:12.635Z,11.08
2019-06-26T14:46:45.312Z,10.98
2019-06-26T14:49:16.955Z,7.67
2019-06-26T14:51:49.507Z,6.00
2019-06-26T14:54:21.715Z,8.95
2019-06-26T14:56:53.967Z,17.40
2019-06-26T14:59:26.028Z,7.80
2019-06-26T15:01:58.250Z,8.70
2019-06-26T15:04:29.942Z,6.42
2019-06-26T15:07:02.758Z,6.55
2019-06-26T15:09:34.967Z,6.40
2019-06-26T15:12:07.221Z,8.18
2019-06-26T15:14:39.143Z,6.20
2019-06-26T15:17:10.860Z,18.15
2019-06-26T15:19:43.480Z,42.98
2019-06-26T15:22:15.666Z,35.70
2019-06-26T15:24:47.424Z,18.55
2019-06-26T15:27:19.557Z,12.55
2019-06-26T15:29:51.694Z,10.40
2019-06-26T15:32:23.892Z,6.37
2019-06-26T15:34:56.710Z,19.82
2019-06-26T15:37:28.909Z,8.03
2019-06-26T15:40:02.083Z,7.28
2019-06-26T15:42:33.894Z,14.70
2019-06-26T15:45:07.381Z,10.88
2019-06-26T15:47:39.652Z,8.55
2019-06-26T15:50:13.339Z,5.55
2019-06-26T15:52:46.023Z,7.75
2019-06-26T15:55:17.866Z,18.60
2019-06-26T15:57:49.667Z,6.62
2019-06-26T16:00:22.763Z,11.10
2019-06-26T16:02:54.619Z,5.53
2019-06-26T16:05:26.443Z,6.00
2019-06-26T16:07:58.192Z,7.30
2019-06-26T16:10:29.976Z,7.53
2019-06-26T16:13:02.628Z,5.35
2019-06-26T16:15:34.713Z,5.78
2019-06-26T16:18:12.288Z,5.35
2019-06-26T16:20:43.976Z,5.72
2019-06-26T16:23:15.797Z,5.22
2019-06-26T16:25:47.898Z,5.65
2019-06-26T16:28:22.719Z,5.87
2019-06-26T16:30:55.328Z,5.60
2019-06-26T16:33:27.184Z,6.22
2019-06-26T16:35:59.509Z,6.53
2019-06-26T16:38:32.975Z,5.20
2019-06-26T16:41:04.844Z,5.70
2019-06-26T16:43:38.217Z,5.30
2019-06-26T16:46:10.413Z,5.37
2019-06-26T16:48:42.486Z,6.80
2019-06-26T16:51:14.255Z,6.00
2019-06-26T16:53:46.443Z,5.67
2019-06-26T16:56:19.317Z,5.50
2019-06-26T16:58:51.436Z,5.53
2019-06-26T17:01:23.207Z,5.60
2019-06-26T17:03:54.668Z,5.10
2019-06-26T17:06:27.010Z,5.15
2019-06-26T17:08:59.506Z,4.90
2019-06-26T17:11:32.336Z,4.53
2019-06-26T17:14:03.979Z,4.45
2019-06-26T17:16:35.686Z,4.78
2019-06-26T17:19:07.419Z,4.35
2019-06-26T17:21:41.371Z,4.50
2019-06-26T17:24:12.834Z,4.78
2019-06-26T17:26:44.701Z,4.20
2019-06-26T17:29:17.451Z,4.83
2019-06-26T17:31:49.723Z,3.92
2019-06-26T17:34:21.114Z,4.80
2019-06-26T17:36:52.551Z,4.55
2019-06-26T17:39:25.234Z,4.03
2019-06-26T17:41:57.364Z,4.50
2019-06-26T17:44:28.735Z,4.25
2019-06-26T17:47:00.500Z,4.50
2019-06-26T17:49:32.085Z,4.75
2019-06-26T17:52:03.859Z,4.62
2019-06-26T17:54:35.390Z,4.45
2019-06-26T17:57:06.839Z,4.90
2019-06-26T17:59:39.497Z,4.45
2019-06-26T18:02:11.220Z,4.40
2019-06-26T18:04:43.851Z,4.40
2019-06-26T18:07:16.227Z,4.62
2019-06-26T18:09:48.345Z,4.70
2019-06-26T18:12:20.132Z,5.03
2019-06-26T18:14:52.323Z,4.67
2019-06-26T18:17:24.134Z,5.40
2019-06-26T18:19:56.203Z,4.90
2019-06-26T18:22:29.400Z,4.78
2019-06-26T18:25:01.251Z,4.80
2019-06-26T18:27:33.429Z,4.95
2019-06-26T18:30:06.191Z,4.40
2019-06-26T18:32:37.886Z,4.70
2019-06-26T18:35:09.841Z,4.80
2019-06-26T18:37:42.381Z,5.20
2019-06-26T18:40:14.772Z,5.15
2019-06-26T18:42:46.990Z,4.47
2019-06-26T18:45:18.811Z,5.17
2019-06-26T18:47:51.592Z,4.80
2019-06-26T18:50:23.324Z,5.00
2019-06-26T18:52:55.115Z,5.50
2019-06-26T18:55:27.211Z,5.12
2019-06-26T18:57:59.572Z,5.28
2019-06-26T19:00:31.238Z,5.80
2019-06-26T19:03:03.151Z,5.85
2019-06-26T19:05:35.332Z,5.40
2019-06-26T19:08:07.601Z,5.78
2019-06-26T19:10:39.534Z,6.22
2019-06-26T19:13:11.931Z,5.60
2019-06-26T19:15:44.537Z,5.92
2019-06-26T19:18:16.324Z,5.60
2019-06-26T19:20:48.159Z,6.17
2019-06-26T19:23:20.325Z,6.15
2019-06-26T19:25:53.576Z,6.05
2019-06-26T19:28:26.373Z,6.28
2019-06-26T19:30:59.303Z,6.90
2019-06-26T19:33:31.571Z,7.03
2019-06-26T19:36:03.827Z,7.17
2019-06-26T19:38:36.122Z,6.65
2019-06-26T19:41:08.789Z,6.65
2019-06-26T19:43:41.366Z,6.75
2019-06-26T19:46:13.098Z,7.30
2019-06-26T19:48:45.340Z,7.33
2019-06-26T19:51:17.491Z,7.83
2019-06-26T19:53:49.132Z,8.05
2019-06-26T19:56:21.477Z,7.85
2019-06-26T19:58:54.885Z,8.03
2019-06-26T20:01:26.635Z,7.22
2019-06-26T20:03:58.419Z,7.30
2019-06-26T20:06:30.301Z,8.23
2019-06-26T20:09:02.115Z,8.28
2019-06-26T20:11:34.326Z,8.90
2019-06-26T20:14:06.181Z,8.60
2019-06-26T20:16:39.535Z,8.63
2019-06-26T20:19:11.663Z,8.03
2019-06-26T20:21:44.207Z,9.80
2019-06-26T20:24:15.927Z,8.60
2019-06-26T20:26:48.289Z,8.53
2019-06-26T20:29:20.004Z,8.43
2019-06-26T20:31:53.269Z,8.65
2019-06-26T20:34:26.002Z,8.23
2019-06-26T20:36:57.855Z,8.25
2019-06-26T20:39:30.301Z,8.35
2019-06-26T20:42:03.079Z,8.75
2019-06-26T20:44:35.393Z,8.80
2019-06-26T20:47:07.171Z,9.03
2019-06-26T20:49:52.630Z,9.48
2019-06-26T20:52:13.312Z,8.55
2019-06-26T20:55:00.111Z,9.33
2019-06-26T20:57:19.719Z,9.70
2019-06-26T20:59:51.581Z,8.93
2019-06-26T21:02:23.808Z,8.55
2019-06-26T21:04:56.280Z,8.73
2019-06-26T21:07:28.496Z,9.45
2019-06-26T21:10:00.812Z,9.68
2019-06-26T21:12:32.656Z,9.80
2019-06-26T21:15:04.400Z,8.98
2019-06-26T21:17:36.575Z,9.35
2019-06-26T21:20:09.319Z,9.35
2019-06-26T21:22:41.572Z,9.85
2019-06-26T21:25:19.015Z,9.70
2019-06-26T21:27:48.437Z,10.00
2019-06-26T21:30:20.707Z,10.20
2019-06-26T21:32:52.578Z,9.90
2019-06-26T21:35:24.912Z,10.20
2019-06-26T21:37:57.212Z,9.90
2019-06-26T21:40:30.646Z,10.88
2019-06-26T21:43:02.945Z,10.03
2019-06-26T21:45:34.712Z,9.88
2019-06-26T21:48:06.580Z,10.65
2019-06-26T21:50:38.859Z,10.88
2019-06-26T21:53:11.124Z,11.08
2019-06-26T21:55:44.351Z,11.50
2019-06-26T21:58:36.018Z,11.08
2019-06-26T22:01:25.863Z,11.28
2019-06-26T22:04:15.875Z,11.28
2019-06-26T22:07:06.247Z,12.45
2019-06-26T22:09:48.671Z,11.48
2019-06-26T22:12:20.744Z,11.93
2019-06-26T22:14:53.165Z,11.33
2019-06-26T22:17:25.388Z,11.08
2019-06-26T22:19:57.435Z,11.30
2019-06-26T22:22:29.288Z,10.65
2019-06-26T22:25:01.646Z,11.45
2019-06-26T22:27:33.812Z,11.28
2019-06-26T22:30:06.248Z,11.63
2019-06-26T22:32:38.596Z,12.25
2019-06-26T22:35:10.734Z,11.40
2019-06-26T22:37:43.351Z,11.38
2019-06-26T22:40:16.648Z,11.85
2019-06-26T22:42:48.569Z,11.63
2019-06-26T22:45:21.289Z,12.37
2019-06-26T22:47:53.586Z,11.65
2019-06-26T22:50:25.674Z,11.63
2019-06-26T22:52:57.465Z,12.80
2019-06-26T22:55:29.778Z,12.10
2019-06-26T22:58:02.207Z,11.75
2019-06-26T23:00:34.084Z,13.70
2019-06-26T23:03:05.942Z,12.33
2019-06-26T23:05:37.716Z,11.50
2019-06-26T23:08:09.510Z,11.23
2019-06-26T23:10:41.367Z,11.20
2019-06-26T23:13:14.221Z,10.90
2019-06-26T23:15:48.761Z,10.37
2019-06-26T23:18:20.617Z,10.30
2019-06-26T23:20:52.448Z,10.43
2019-06-26T23:23:24.345Z,10.80
2019-06-26T23:25:56.847Z,10.60
2019-06-26T23:28:28.672Z,9.47
2019-06-26T23:31:00.604Z,10.20
2019-06-26T23:33:32.465Z,9.73
2019-06-26T23:36:04.336Z,9.70
2019-06-26T23:38:36.181Z,9.90
2019-06-26T23:41:08.770Z,10.25
2019-06-26T23:43:40.539Z,10.60
2019-06-26T23:46:12.276Z,11.60
2019-06-26T23:48:45.799Z,12.70
2019-06-26T23:51:17.482Z,12.60
2019-06-26T23:53:49.345Z,11.93
2019-06-26T23:56:21.197Z,12.63
2019-06-26T23:58:53.401Z,13.07
